Heckscherville, Pennsylvania
Current Conditions -  °F | °C
As of 6:58 PM on Friday 24 Oct 2014 (Local Time) from KMUI Reporting Station
Clear Clear  
Wind Chill: 62°   Ceiling: Unl
Heat Index: 62°   Visibility: 10mi
Dew Point: 38°   Wind: 10mph
Humidity: 41%   Direction: 260°W
Pressure: 29.88"   Gusts: NA
Location:  40.6882°N, 76.264°W
Report Text: KMUI 242258Z AUTO 26009KT 10SM CLR 17/03 A2988 RMK AO2 SLP121 T01660031 $
Loading
Personal Weather Stations






























Interactive Weather Map
Tropical Storm Tracking
New forecast layout! Learn more

10-Day Weather Forecast

Advertisements
Track Severe Weather on mobile